sensor_id;sensor_type;location;lat;lon;timestamp;temperature;humidity
52867;DHT22;38739;53.324;6.862;2023-08-01T00:00:17;16.60;99.90
52867;DHT22;38739;53.324;6.862;2023-08-01T00:02:42;16.60;99.90
52867;DHT22;38739;53.324;6.862;2023-08-01T00:05:08;16.60;99.90
52867;DHT22;38739;53.324;6.862;2023-08-01T00:07:34;16.60;99.90
52867;DHT22;38739;53.324;6.862;2023-08-01T00:09:59;16.60;99.90
52867;DHT22;38739;53.324;6.862;2023-08-01T00:12:25;16.60;99.90
52867;DHT22;38739;53.324;6.862;2023-08-01T00:14:51;16.60;99.90
52867;DHT22;38739;53.324;6.862;2023-08-01T00:17:17;16.50;99.90
52867;DHT22;38739;53.324;6.862;2023-08-01T00:19:42;16.60;99.90
52867;DHT22;38739;53.324;6.862;2023-08-01T00:22:08;16.60;99.90
52867;DHT22;38739;53.324;6.862;2023-08-01T00:24:35;16.50;99.90
52867;DHT22;38739;53.324;6.862;2023-08-01T00:27:01;16.50;99.90
52867;DHT22;38739;53.324;6.862;2023-08-01T00:29:26;16.50;99.90
52867;DHT22;38739;53.324;6.862;2023-08-01T00:31:52;16.50;99.90
52867;DHT22;38739;53.324;6.862;2023-08-01T00:34:18;16.50;99.90
52867;DHT22;38739;53.324;6.862;2023-08-01T00:36:43;16.50;99.90
52867;DHT22;38739;53.324;6.862;2023-08-01T00:39:09;16.50;99.90
52867;DHT22;38739;53.324;6.862;2023-08-01T00:41:35;16.50;99.90
52867;DHT22;38739;53.324;6.862;2023-08-01T00:44:01;16.50;99.90
52867;DHT22;38739;53.324;6.862;2023-08-01T00:46:26;16.50;99.90
52867;DHT22;38739;53.324;6.862;2023-08-01T00:48:53;16.50;99.90
52867;DHT22;38739;53.324;6.862;2023-08-01T00:51:23;16.50;99.90
52867;DHT22;38739;53.324;6.862;2023-08-01T00:53:50;16.40;99.90
52867;DHT22;38739;53.324;6.862;2023-08-01T00:56:17;16.50;99.90
52867;DHT22;38739;53.324;6.862;2023-08-01T00:58:42;16.40;99.90
52867;DHT22;38739;53.324;6.862;2023-08-01T01:01:08;16.40;99.90
52867;DHT22;38739;53.324;6.862;2023-08-01T01:03:34;16.40;99.90
52867;DHT22;38739;53.324;6.862;2023-08-01T01:06:08;16.40;99.90
52867;DHT22;38739;53.324;6.862;2023-08-01T01:08:34;16.40;99.90
52867;DHT22;38739;53.324;6.862;2023-08-01T01:11:00;16.40;99.90
52867;DHT22;38739;53.324;6.862;2023-08-01T01:13:26;16.30;99.90
52867;DHT22;38739;53.324;6.862;2023-08-01T01:15:51;16.30;99.90
52867;DHT22;38739;53.324;6.862;2023-08-01T01:18:17;16.30;99.90
52867;DHT22;38739;53.324;6.862;2023-08-01T01:20:43;16.30;99.90
52867;DHT22;38739;53.324;6.862;2023-08-01T01:23:09;16.20;99.90
52867;DHT22;38739;53.324;6.862;2023-08-01T01:25:36;16.20;99.90
52867;DHT22;38739;53.324;6.862;2023-08-01T01:28:04;16.10;99.90
52867;DHT22;38739;53.324;6.862;2023-08-01T01:30:32;16.10;99.90
52867;DHT22;38739;53.324;6.862;2023-08-01T01:33:00;16.10;99.90
52867;DHT22;38739;53.324;6.862;2023-08-01T01:35:25;16.00;99.90
52867;DHT22;38739;53.324;6.862;2023-08-01T01:37:51;16.10;99.90
52867;DHT22;38739;53.324;6.862;2023-08-01T01:40:17;16.00;99.90
52867;DHT22;38739;53.324;6.862;2023-08-01T01:42:42;16.00;99.90
52867;DHT22;38739;53.324;6.862;2023-08-01T01:45:08;16.00;99.90
52867;DHT22;38739;53.324;6.862;2023-08-01T01:47:34;15.90;99.90
52867;DHT22;38739;53.324;6.862;2023-08-01T01:50:00;15.90;99.90
52867;DHT22;38739;53.324;6.862;2023-08-01T01:52:25;15.90;99.90
52867;DHT22;38739;53.324;6.862;2023-08-01T01:54:51;15.80;99.90
52867;DHT22;38739;53.324;6.862;2023-08-01T01:57:17;15.70;99.90
52867;DHT22;38739;53.324;6.862;2023-08-01T01:59:42;15.70;99.90
52867;DHT22;38739;53.324;6.862;2023-08-01T02:02:08;15.70;99.90
52867;DHT22;38739;53.324;6.862;2023-08-01T02:04:34;15.60;99.90
52867;DHT22;38739;53.324;6.862;2023-08-01T02:06:59;15.60;99.90
52867;DHT22;38739;53.324;6.862;2023-08-01T02:09:25;15.60;99.90
52867;DHT22;38739;53.324;6.862;2023-08-01T02:11:51;15.60;99.90
52867;DHT22;38739;53.324;6.862;2023-08-01T02:14:16;15.50;99.90
52867;DHT22;38739;53.324;6.862;2023-08-01T02:16:42;15.50;99.90
52867;DHT22;38739;53.324;6.862;2023-08-01T02:19:08;15.50;99.90
52867;DHT22;38739;53.324;6.862;2023-08-01T02:21:33;15.50;99.90
52867;DHT22;38739;53.324;6.862;2023-08-01T02:23:59;15.50;99.90
52867;DHT22;38739;53.324;6.862;2023-08-01T02:26:25;15.50;99.90
52867;DHT22;38739;53.324;6.862;2023-08-01T02:28:50;15.40;99.90
52867;DHT22;38739;53.324;6.862;2023-08-01T02:31:16;15.40;99.90
52867;DHT22;38739;53.324;6.862;2023-08-01T02:33:42;15.30;99.90
52867;DHT22;38739;53.324;6.862;2023-08-01T02:36:08;15.30;99.90
52867;DHT22;38739;53.324;6.862;2023-08-01T02:38:34;15.30;99.90
52867;DHT22;38739;53.324;6.862;2023-08-01T02:40:59;15.30;99.90
52867;DHT22;38739;53.324;6.862;2023-08-01T02:43:25;15.30;99.90
52867;DHT22;38739;53.324;6.862;2023-08-01T02:45:51;15.30;99.90
52867;DHT22;38739;53.324;6.862;2023-08-01T02:48:16;15.20;99.90
52867;DHT22;38739;53.324;6.862;2023-08-01T02:50:42;15.20;99.90
52867;DHT22;38739;53.324;6.862;2023-08-01T02:53:08;15.20;99.90
52867;DHT22;38739;53.324;6.862;2023-08-01T02:55:33;15.10;99.90
52867;DHT22;38739;53.324;6.862;2023-08-01T02:57:59;15.10;99.90
52867;DHT22;38739;53.324;6.862;2023-08-01T03:00:25;15.10;99.90
52867;DHT22;38739;53.324;6.862;2023-08-01T03:02:51;15.10;99.90
52867;DHT22;38739;53.324;6.862;2023-08-01T03:05:17;15.00;99.90
52867;DHT22;38739;53.324;6.862;2023-08-01T03:07:42;15.00;99.90
52867;DHT22;38739;53.324;6.862;2023-08-01T03:10:08;15.10;99.90
52867;DHT22;38739;53.324;6.862;2023-08-01T03:12:36;15.00;99.90
52867;DHT22;38739;53.324;6.862;2023-08-01T03:15:03;14.90;99.90
52867;DHT22;38739;53.324;6.862;2023-08-01T03:17:29;14.90;99.90
52867;DHT22;38739;53.324;6.862;2023-08-01T03:19:54;14.90;99.90
52867;DHT22;38739;53.324;6.862;2023-08-01T03:22:20;14.90;99.90
52867;DHT22;38739;53.324;6.862;2023-08-01T03:24:47;14.90;99.90
52867;DHT22;38739;53.324;6.862;2023-08-01T03:27:12;14.90;99.90
52867;DHT22;38739;53.324;6.862;2023-08-01T03:29:38;14.90;99.90
52867;DHT22;38739;53.324;6.862;2023-08-01T03:32:04;14.90;99.90
52867;DHT22;38739;53.324;6.862;2023-08-01T03:34:30;14.90;99.90
52867;DHT22;38739;53.324;6.862;2023-08-01T03:36:56;14.90;99.90
52867;DHT22;38739;53.324;6.862;2023-08-01T03:39:21;14.90;99.90
52867;DHT22;38739;53.324;6.862;2023-08-01T03:41:47;15.00;99.90
52867;DHT22;38739;53.324;6.862;2023-08-01T03:44:13;14.90;99.90
52867;DHT22;38739;53.324;6.862;2023-08-01T03:46:38;14.90;99.90
52867;DHT22;38739;53.324;6.862;2023-08-01T03:49:04;15.00;99.90
52867;DHT22;38739;53.324;6.862;2023-08-01T03:51:30;15.00;99.90
52867;DHT22;38739;53.324;6.862;2023-08-01T03:53:55;15.00;99.90
52867;DHT22;38739;53.324;6.862;2023-08-01T03:56:21;15.00;99.90
52867;DHT22;38739;53.324;6.862;2023-08-01T03:58:46;15.10;99.90
52867;DHT22;38739;53.324;6.862;2023-08-01T04:01:12;15.00;99.90
52867;DHT22;38739;53.324;6.862;2023-08-01T04:03:38;15.00;99.90
52867;DHT22;38739;53.324;6.862;2023-08-01T04:06:04;15.10;99.90
52867;DHT22;38739;53.324;6.862;2023-08-01T04:08:29;15.10;99.90
52867;DHT22;38739;53.324;6.862;2023-08-01T04:10:55;15.10;99.90
52867;DHT22;38739;53.324;6.862;2023-08-01T04:13:21;15.10;99.90
52867;DHT22;38739;53.324;6.862;2023-08-01T04:15:47;15.10;99.90
52867;DHT22;38739;53.324;6.862;2023-08-01T04:18:13;15.10;99.90
52867;DHT22;38739;53.324;6.862;2023-08-01T04:20:39;15.10;99.90
52867;DHT22;38739;53.324;6.862;2023-08-01T04:23:04;15.10;99.90
52867;DHT22;38739;53.324;6.862;2023-08-01T04:25:30;15.10;99.90
52867;DHT22;38739;53.324;6.862;2023-08-01T04:27:56;15.10;99.90
52867;DHT22;38739;53.324;6.862;2023-08-01T04:30:21;15.10;99.90
52867;DHT22;38739;53.324;6.862;2023-08-01T04:32:47;15.10;99.90
52867;DHT22;38739;53.324;6.862;2023-08-01T04:35:13;15.10;99.90
52867;DHT22;38739;53.324;6.862;2023-08-01T04:37:38;15.10;99.90
52867;DHT22;38739;53.324;6.862;2023-08-01T04:40:04;15.10;99.90
52867;DHT22;38739;53.324;6.862;2023-08-01T04:42:30;15.20;99.90
52867;DHT22;38739;53.324;6.862;2023-08-01T04:44:56;15.20;99.90
52867;DHT22;38739;53.324;6.862;2023-08-01T04:47:22;15.20;99.90
52867;DHT22;38739;53.324;6.862;2023-08-01T04:49:47;15.20;99.90
52867;DHT22;38739;53.324;6.862;2023-08-01T04:52:13;15.20;99.90
52867;DHT22;38739;53.324;6.862;2023-08-01T04:54:39;15.20;99.90
52867;DHT22;38739;53.324;6.862;2023-08-01T04:57:05;15.20;99.90
52867;DHT22;38739;53.324;6.862;2023-08-01T04:59:30;15.20;99.90
52867;DHT22;38739;53.324;6.862;2023-08-01T05:01:56;15.20;99.90
52867;DHT22;38739;53.324;6.862;2023-08-01T05:04:22;15.20;99.90
52867;DHT22;38739;53.324;6.862;2023-08-01T05:06:48;15.20;99.90
52867;DHT22;38739;53.324;6.862;2023-08-01T05:09:13;15.20;99.90
52867;DHT22;38739;53.324;6.862;2023-08-01T05:11:39;15.20;99.90
52867;DHT22;38739;53.324;6.862;2023-08-01T05:14:05;15.20;99.90
52867;DHT22;38739;53.324;6.862;2023-08-01T05:16:31;15.30;99.90
52867;DHT22;38739;53.324;6.862;2023-08-01T05:18:56;15.30;99.90
52867;DHT22;38739;53.324;6.862;2023-08-01T05:21:22;15.30;99.90
52867;DHT22;38739;53.324;6.862;2023-08-01T05:23:48;15.30;99.90
52867;DHT22;38739;53.324;6.862;2023-08-01T05:26:14;15.30;99.90
52867;DHT22;38739;53.324;6.862;2023-08-01T05:28:39;15.30;99.90
52867;DHT22;38739;53.324;6.862;2023-08-01T05:31:05;15.30;99.90
52867;DHT22;38739;53.324;6.862;2023-08-01T05:33:31;15.40;99.90
52867;DHT22;38739;53.324;6.862;2023-08-01T05:35:57;15.50;99.90
52867;DHT22;38739;53.324;6.862;2023-08-01T05:38:22;15.50;99.90
52867;DHT22;38739;53.324;6.862;2023-08-01T05:40:48;15.60;99.90
52867;DHT22;38739;53.324;6.862;2023-08-01T05:43:14;15.70;99.90
52867;DHT22;38739;53.324;6.862;2023-08-01T05:45:39;15.90;99.90
52867;DHT22;38739;53.324;6.862;2023-08-01T05:48:05;16.00;99.90
52867;DHT22;38739;53.324;6.862;2023-08-01T05:50:31;16.10;99.90
52867;DHT22;38739;53.324;6.862;2023-08-01T05:52:56;16.20;99.90
52867;DHT22;38739;53.324;6.862;2023-08-01T05:55:22;16.20;99.90
52867;DHT22;38739;53.324;6.862;2023-08-01T05:57:48;16.30;99.90
52867;DHT22;38739;53.324;6.862;2023-08-01T06:00:18;16.20;99.90
52867;DHT22;38739;53.324;6.862;2023-08-01T06:02:46;16.20;99.90
52867;DHT22;38739;53.324;6.862;2023-08-01T06:05:11;16.20;99.90
52867;DHT22;38739;53.324;6.862;2023-08-01T06:07:37;16.10;99.90
52867;DHT22;38739;53.324;6.862;2023-08-01T06:10:03;16.10;99.90
52867;DHT22;38739;53.324;6.862;2023-08-01T06:12:29;16.00;99.90
52867;DHT22;38739;53.324;6.862;2023-08-01T06:14:55;16.00;99.90
52867;DHT22;38739;53.324;6.862;2023-08-01T06:17:21;16.10;99.90
52867;DHT22;38739;53.324;6.862;2023-08-01T06:19:47;16.10;99.90
52867;DHT22;38739;53.324;6.862;2023-08-01T06:22:13;16.10;99.90
52867;DHT22;38739;53.324;6.862;2023-08-01T06:24:38;16.10;99.90
52867;DHT22;38739;53.324;6.862;2023-08-01T06:27:04;16.10;99.90
52867;DHT22;38739;53.324;6.862;2023-08-01T06:29:31;16.10;99.90
52867;DHT22;38739;53.324;6.862;2023-08-01T06:31:57;16.10;99.90
52867;DHT22;38739;53.324;6.862;2023-08-01T06:34:22;16.20;99.90
52867;DHT22;38739;53.324;6.862;2023-08-01T06:36:50;16.10;99.90
52867;DHT22;38739;53.324;6.862;2023-08-01T06:39:16;16.10;99.90
52867;DHT22;38739;53.324;6.862;2023-08-01T06:41:41;16.10;99.90
52867;DHT22;38739;53.324;6.862;2023-08-01T06:44:07;16.00;99.90
52867;DHT22;38739;53.324;6.862;2023-08-01T06:46:33;16.00;99.90
52867;DHT22;38739;53.324;6.862;2023-08-01T06:48:58;16.00;99.90
52867;DHT22;38739;53.324;6.862;2023-08-01T06:51:24;15.90;99.90
52867;DHT22;38739;53.324;6.862;2023-08-01T06:53:50;15.90;99.90
52867;DHT22;38739;53.324;6.862;2023-08-01T06:56:15;15.90;99.90
52867;DHT22;38739;53.324;6.862;2023-08-01T06:58:41;15.90;99.90
52867;DHT22;38739;53.324;6.862;2023-08-01T07:01:07;15.90;99.90
52867;DHT22;38739;53.324;6.862;2023-08-01T07:03:32;15.90;99.90
52867;DHT22;38739;53.324;6.862;2023-08-01T07:05:58;15.80;99.90
52867;DHT22;38739;53.324;6.862;2023-08-01T07:08:24;15.80;99.90
52867;DHT22;38739;53.324;6.862;2023-08-01T07:10:49;15.80;99.90
52867;DHT22;38739;53.324;6.862;2023-08-01T07:13:15;15.80;99.90
52867;DHT22;38739;53.324;6.862;2023-08-01T07:15:42;15.80;99.90
52867;DHT22;38739;53.324;6.862;2023-08-01T07:18:08;15.80;99.90
52867;DHT22;38739;53.324;6.862;2023-08-01T07:20:33;15.90;99.90
52867;DHT22;38739;53.324;6.862;2023-08-01T07:22:59;16.00;99.90
52867;DHT22;38739;53.324;6.862;2023-08-01T07:25:25;16.10;99.90
52867;DHT22;38739;53.324;6.862;2023-08-01T07:27:50;16.20;99.90
52867;DHT22;38739;53.324;6.862;2023-08-01T07:30:16;16.30;99.90
52867;DHT22;38739;53.324;6.862;2023-08-01T07:32:42;16.40;99.90
52867;DHT22;38739;53.324;6.862;2023-08-01T07:35:09;16.50;99.90
52867;DHT22;38739;53.324;6.862;2023-08-01T07:37:35;16.60;99.90
52867;DHT22;38739;53.324;6.862;2023-08-01T07:40:04;16.90;99.90
52867;DHT22;38739;53.324;6.862;2023-08-01T07:42:30;17.00;99.90
52867;DHT22;38739;53.324;6.862;2023-08-01T07:44:56;17.10;99.90
52867;DHT22;38739;53.324;6.862;2023-08-01T07:47:22;17.10;99.90
52867;DHT22;38739;53.324;6.862;2023-08-01T07:49:49;17.00;99.90
52867;DHT22;38739;53.324;6.862;2023-08-01T07:52:15;17.10;99.90
52867;DHT22;38739;53.324;6.862;2023-08-01T07:54:41;17.10;99.90
52867;DHT22;38739;53.324;6.862;2023-08-01T07:57:06;17.10;99.90
52867;DHT22;38739;53.324;6.862;2023-08-01T07:59:32;17.20;99.90
52867;DHT22;38739;53.324;6.862;2023-08-01T08:01:58;17.30;99.90
52867;DHT22;38739;53.324;6.862;2023-08-01T08:04:23;17.40;99.90
52867;DHT22;38739;53.324;6.862;2023-08-01T08:06:49;17.40;99.90
52867;DHT22;38739;53.324;6.862;2023-08-01T08:09:15;17.40;99.90
52867;DHT22;38739;53.324;6.862;2023-08-01T08:11:40;17.40;99.90
52867;DHT22;38739;53.324;6.862;2023-08-01T08:14:06;17.40;99.90
52867;DHT22;38739;53.324;6.862;2023-08-01T08:16:32;17.30;99.90
52867;DHT22;38739;53.324;6.862;2023-08-01T08:18:57;17.30;99.90
52867;DHT22;38739;53.324;6.862;2023-08-01T08:21:23;17.30;99.90
52867;DHT22;38739;53.324;6.862;2023-08-01T08:23:49;17.20;99.90
52867;DHT22;38739;53.324;6.862;2023-08-01T08:26:14;17.30;99.90
52867;DHT22;38739;53.324;6.862;2023-08-01T08:28:40;17.20;99.90
52867;DHT22;38739;53.324;6.862;2023-08-01T08:31:07;17.20;99.90
52867;DHT22;38739;53.324;6.862;2023-08-01T08:33:33;17.20;99.90
52867;DHT22;38739;53.324;6.862;2023-08-01T08:35:59;17.20;99.90
52867;DHT22;38739;53.324;6.862;2023-08-01T08:38:24;17.30;99.90
52867;DHT22;38739;53.324;6.862;2023-08-01T08:41:11;17.50;99.90
52867;DHT22;38739;53.324;6.862;2023-08-01T08:43:39;17.80;99.90
52867;DHT22;38739;53.324;6.862;2023-08-01T08:46:08;17.90;99.90
52867;DHT22;38739;53.324;6.862;2023-08-01T08:48:35;18.00;99.90
52867;DHT22;38739;53.324;6.862;2023-08-01T08:51:02;18.10;99.90
52867;DHT22;38739;53.324;6.862;2023-08-01T08:53:30;18.20;99.90
52867;DHT22;38739;53.324;6.862;2023-08-01T08:55:56;18.20;99.90
52867;DHT22;38739;53.324;6.862;2023-08-01T08:58:22;18.20;99.90
52867;DHT22;38739;53.324;6.862;2023-08-01T09:00:48;18.10;99.90
52867;DHT22;38739;53.324;6.862;2023-08-01T09:03:15;17.80;99.90
52867;DHT22;38739;53.324;6.862;2023-08-01T09:05:57;17.50;99.90
52867;DHT22;38739;53.324;6.862;2023-08-01T09:08:27;17.30;99.90
52867;DHT22;38739;53.324;6.862;2023-08-01T09:10:53;17.10;99.90
52867;DHT22;38739;53.324;6.862;2023-08-01T09:13:19;16.90;99.90
52867;DHT22;38739;53.324;6.862;2023-08-01T09:15:45;16.80;99.90
52867;DHT22;38739;53.324;6.862;2023-08-01T09:18:12;16.80;99.90
52867;DHT22;38739;53.324;6.862;2023-08-01T09:20:48;16.70;99.90
52867;DHT22;38739;53.324;6.862;2023-08-01T09:23:15;16.70;99.90
52867;DHT22;38739;53.324;6.862;2023-08-01T09:25:41;16.70;99.90
52867;DHT22;38739;53.324;6.862;2023-08-01T09:28:21;16.70;99.90
52867;DHT22;38739;53.324;6.862;2023-08-01T09:30:56;16.80;99.90
52867;DHT22;38739;53.324;6.862;2023-08-01T09:33:23;17.00;99.90
52867;DHT22;38739;53.324;6.862;2023-08-01T09:35:52;16.90;99.90
52867;DHT22;38739;53.324;6.862;2023-08-01T09:38:18;16.90;99.90
52867;DHT22;38739;53.324;6.862;2023-08-01T09:40:45;16.90;99.90
52867;DHT22;38739;53.324;6.862;2023-08-01T09:43:12;16.90;99.90
52867;DHT22;38739;53.324;6.862;2023-08-01T09:45:38;16.90;99.90
52867;DHT22;38739;53.324;6.862;2023-08-01T09:48:24;16.80;99.90
52867;DHT22;38739;53.324;6.862;2023-08-01T09:50:51;16.80;99.90
52867;DHT22;38739;53.324;6.862;2023-08-01T09:53:16;16.80;99.90
52867;DHT22;38739;53.324;6.862;2023-08-01T09:55:45;16.90;99.90
52867;DHT22;38739;53.324;6.862;2023-08-01T09:58:13;17.10;99.90
52867;DHT22;38739;53.324;6.862;2023-08-01T10:00:41;17.50;99.90
52867;DHT22;38739;53.324;6.862;2023-08-01T10:03:09;18.00;99.90
52867;DHT22;38739;53.324;6.862;2023-08-01T10:05:35;18.50;99.90
52867;DHT22;38739;53.324;6.862;2023-08-01T10:08:03;18.90;99.90
52867;DHT22;38739;53.324;6.862;2023-08-01T10:10:30;18.90;99.90
52867;DHT22;38739;53.324;6.862;2023-08-01T10:13:01;18.90;99.90
52867;DHT22;38739;53.324;6.862;2023-08-01T10:15:28;18.80;99.90
52867;DHT22;38739;53.324;6.862;2023-08-01T10:17:54;18.90;99.90
52867;DHT22;38739;53.324;6.862;2023-08-01T10:20:21;19.20;99.90
52867;DHT22;38739;53.324;6.862;2023-08-01T10:22:49;19.60;99.90
52867;DHT22;38739;53.324;6.862;2023-08-01T10:25:16;19.80;99.90
52867;DHT22;38739;53.324;6.862;2023-08-01T10:27:43;20.10;99.90
52867;DHT22;38739;53.324;6.862;2023-08-01T10:30:09;20.00;99.90
52867;DHT22;38739;53.324;6.862;2023-08-01T10:32:39;19.60;99.90
52867;DHT22;38739;53.324;6.862;2023-08-01T10:35:06;19.30;99.90
52867;DHT22;38739;53.324;6.862;2023-08-01T10:37:42;19.10;99.90
52867;DHT22;38739;53.324;6.862;2023-08-01T10:40:09;18.90;99.90
52867;DHT22;38739;53.324;6.862;2023-08-01T10:42:43;18.80;99.90
52867;DHT22;38739;53.324;6.862;2023-08-01T10:45:20;18.70;99.90
52867;DHT22;38739;53.324;6.862;2023-08-01T10:47:48;18.80;99.90
52867;DHT22;38739;53.324;6.862;2023-08-01T10:50:14;19.00;99.90
52867;DHT22;38739;53.324;6.862;2023-08-01T10:52:41;19.30;99.90
52867;DHT22;38739;53.324;6.862;2023-08-01T10:55:07;19.50;99.90
52867;DHT22;38739;53.324;6.862;2023-08-01T10:57:36;19.70;99.90
52867;DHT22;38739;53.324;6.862;2023-08-01T11:00:03;19.80;99.90
52867;DHT22;38739;53.324;6.862;2023-08-01T11:02:35;19.70;99.90
52867;DHT22;38739;53.324;6.862;2023-08-01T11:05:02;19.80;99.90
52867;DHT22;38739;53.324;6.862;2023-08-01T11:07:29;20.00;99.90
52867;DHT22;38739;53.324;6.862;2023-08-01T11:10:03;20.00;99.90
52867;DHT22;38739;53.324;6.862;2023-08-01T11:12:30;20.00;99.90
52867;DHT22;38739;53.324;6.862;2023-08-01T11:15:00;20.10;99.90
52867;DHT22;38739;53.324;6.862;2023-08-01T11:17:26;20.10;99.90
52867;DHT22;38739;53.324;6.862;2023-08-01T11:19:59;20.30;99.90
52867;DHT22;38739;53.324;6.862;2023-08-01T11:22:25;20.80;99.90
52867;DHT22;38739;53.324;6.862;2023-08-01T11:24:51;21.10;99.90
52867;DHT22;38739;53.324;6.862;2023-08-01T11:27:16;21.10;99.90
52867;DHT22;38739;53.324;6.862;2023-08-01T11:29:42;21.40;99.90
52867;DHT22;38739;53.324;6.862;2023-08-01T11:32:08;21.50;99.90
52867;DHT22;38739;53.324;6.862;2023-08-01T11:34:40;21.60;99.90
52867;DHT22;38739;53.324;6.862;2023-08-01T11:37:07;21.30;99.90
52867;DHT22;38739;53.324;6.862;2023-08-01T11:39:33;21.20;99.90
52867;DHT22;38739;53.324;6.862;2023-08-01T11:41:59;21.30;99.90
52867;DHT22;38739;53.324;6.862;2023-08-01T11:44:26;21.40;99.90
52867;DHT22;38739;53.324;6.862;2023-08-01T11:46:51;21.40;99.90
52867;DHT22;38739;53.324;6.862;2023-08-01T11:49:18;21.30;99.90
52867;DHT22;38739;53.324;6.862;2023-08-01T11:51:45;21.30;99.90
52867;DHT22;38739;53.324;6.862;2023-08-01T11:54:12;21.30;99.90
52867;DHT22;38739;53.324;6.862;2023-08-01T11:56:39;21.10;99.90
52867;DHT22;38739;53.324;6.862;2023-08-01T11:59:15;21.20;99.90
52867;DHT22;38739;53.324;6.862;2023-08-01T12:01:42;21.30;99.90
52867;DHT22;38739;53.324;6.862;2023-08-01T12:04:09;21.40;99.90
52867;DHT22;38739;53.324;6.862;2023-08-01T12:06:34;21.60;99.90
52867;DHT22;38739;53.324;6.862;2023-08-01T12:09:10;21.60;99.90
52867;DHT22;38739;53.324;6.862;2023-08-01T12:11:37;21.90;99.90
52867;DHT22;38739;53.324;6.862;2023-08-01T12:14:13;22.10;99.90
52867;DHT22;38739;53.324;6.862;2023-08-01T12:16:41;22.00;99.90
52867;DHT22;38739;53.324;6.862;2023-08-01T12:19:08;21.90;99.90
52867;DHT22;38739;53.324;6.862;2023-08-01T12:21:35;21.80;99.90
52867;DHT22;38739;53.324;6.862;2023-08-01T12:24:01;21.70;99.90
52867;DHT22;38739;53.324;6.862;2023-08-01T12:26:27;21.60;99.90
52867;DHT22;38739;53.324;6.862;2023-08-01T12:28:52;21.70;99.90
52867;DHT22;38739;53.324;6.862;2023-08-01T12:31:22;21.90;99.90
52867;DHT22;38739;53.324;6.862;2023-08-01T12:33:48;21.80;99.90
52867;DHT22;38739;53.324;6.862;2023-08-01T12:36:14;21.70;99.90
52867;DHT22;38739;53.324;6.862;2023-08-01T12:38:40;21.50;99.90
52867;DHT22;38739;53.324;6.862;2023-08-01T12:41:07;21.30;99.90
52867;DHT22;38739;53.324;6.862;2023-08-01T12:43:32;20.90;99.90
52867;DHT22;38739;53.324;6.862;2023-08-01T12:45:58;20.70;99.90
52867;DHT22;38739;53.324;6.862;2023-08-01T12:48:25;20.50;99.90
52867;DHT22;38739;53.324;6.862;2023-08-01T12:50:51;20.30;99.90
52867;DHT22;38739;53.324;6.862;2023-08-01T12:53:17;20.40;99.90
52867;DHT22;38739;53.324;6.862;2023-08-01T12:55:43;20.50;99.90
52867;DHT22;38739;53.324;6.862;2023-08-01T12:58:10;20.80;99.90
52867;DHT22;38739;53.324;6.862;2023-08-01T13:00:36;21.00;99.90
52867;DHT22;38739;53.324;6.862;2023-08-01T13:03:02;21.60;99.90
52867;DHT22;38739;53.324;6.862;2023-08-01T13:05:27;22.10;99.90
52867;DHT22;38739;53.324;6.862;2023-08-01T13:07:53;22.30;99.90
52867;DHT22;38739;53.324;6.862;2023-08-01T13:10:19;22.10;99.90
52867;DHT22;38739;53.324;6.862;2023-08-01T13:12:44;21.90;99.90
52867;DHT22;38739;53.324;6.862;2023-08-01T13:15:10;21.50;99.90
52867;DHT22;38739;53.324;6.862;2023-08-01T13:17:36;21.10;99.90
52867;DHT22;38739;53.324;6.862;2023-08-01T13:20:01;20.90;99.90
52867;DHT22;38739;53.324;6.862;2023-08-01T13:22:27;20.50;99.90
52867;DHT22;38739;53.324;6.862;2023-08-01T13:24:53;20.70;99.90
52867;DHT22;38739;53.324;6.862;2023-08-01T13:27:18;21.20;99.90
52867;DHT22;38739;53.324;6.862;2023-08-01T13:29:44;21.50;99.90
52867;DHT22;38739;53.324;6.862;2023-08-01T13:32:09;21.50;99.90
52867;DHT22;38739;53.324;6.862;2023-08-01T13:34:35;21.30;99.90
52867;DHT22;38739;53.324;6.862;2023-08-01T13:37:01;21.10;99.90
52867;DHT22;38739;53.324;6.862;2023-08-01T13:39:27;20.90;99.90
52867;DHT22;38739;53.324;6.862;2023-08-01T13:41:53;20.70;99.90
52867;DHT22;38739;53.324;6.862;2023-08-01T13:44:18;20.80;99.90
52867;DHT22;38739;53.324;6.862;2023-08-01T13:46:44;20.80;99.90
52867;DHT22;38739;53.324;6.862;2023-08-01T13:49:09;20.70;99.90
52867;DHT22;38739;53.324;6.862;2023-08-01T13:51:35;20.70;99.90
52867;DHT22;38739;53.324;6.862;2023-08-01T13:54:01;20.50;99.90
52867;DHT22;38739;53.324;6.862;2023-08-01T13:56:26;20.20;99.90
52867;DHT22;38739;53.324;6.862;2023-08-01T13:58:52;19.90;99.90
52867;DHT22;38739;53.324;6.862;2023-08-01T14:01:18;19.70;99.90
52867;DHT22;38739;53.324;6.862;2023-08-01T14:03:44;19.50;99.90
52867;DHT22;38739;53.324;6.862;2023-08-01T14:06:12;19.30;99.90
52867;DHT22;38739;53.324;6.862;2023-08-01T14:08:39;19.00;99.90
52867;DHT22;38739;53.324;6.862;2023-08-01T14:11:07;18.90;99.90
52867;DHT22;38739;53.324;6.862;2023-08-01T14:13:33;18.70;99.90
52867;DHT22;38739;53.324;6.862;2023-08-01T14:16:01;18.50;99.90
52867;DHT22;38739;53.324;6.862;2023-08-01T14:18:30;18.50;99.90
52867;DHT22;38739;53.324;6.862;2023-08-01T14:20:56;18.50;99.90
52867;DHT22;38739;53.324;6.862;2023-08-01T14:23:22;18.60;99.90
52867;DHT22;38739;53.324;6.862;2023-08-01T14:25:48;18.60;99.90
52867;DHT22;38739;53.324;6.862;2023-08-01T14:28:14;18.80;99.90
52867;DHT22;38739;53.324;6.862;2023-08-01T14:30:40;19.30;99.90
52867;DHT22;38739;53.324;6.862;2023-08-01T14:33:09;19.60;99.90
52867;DHT22;38739;53.324;6.862;2023-08-01T14:35:36;19.70;99.90
52867;DHT22;38739;53.324;6.862;2023-08-01T14:38:02;19.50;99.90
52867;DHT22;38739;53.324;6.862;2023-08-01T14:40:28;19.40;99.90
52867;DHT22;38739;53.324;6.862;2023-08-01T14:42:54;19.30;99.90
52867;DHT22;38739;53.324;6.862;2023-08-01T14:45:20;19.00;99.90
52867;DHT22;38739;53.324;6.862;2023-08-01T14:47:47;18.80;99.90
52867;DHT22;38739;53.324;6.862;2023-08-01T14:50:13;18.80;99.90
52867;DHT22;38739;53.324;6.862;2023-08-01T14:52:40;18.90;99.90
52867;DHT22;38739;53.324;6.862;2023-08-01T14:55:06;18.90;99.90
52867;DHT22;38739;53.324;6.862;2023-08-01T14:57:32;18.90;99.90
52867;DHT22;38739;53.324;6.862;2023-08-01T14:59:58;18.80;99.90
52867;DHT22;38739;53.324;6.862;2023-08-01T15:02:25;18.70;99.90
52867;DHT22;38739;53.324;6.862;2023-08-01T15:04:55;18.60;99.90
52867;DHT22;38739;53.324;6.862;2023-08-01T15:07:25;18.60;99.90
52867;DHT22;38739;53.324;6.862;2023-08-01T15:09:51;18.60;99.90
52867;DHT22;38739;53.324;6.862;2023-08-01T15:12:18;18.80;99.90
52867;DHT22;38739;53.324;6.862;2023-08-01T15:14:52;19.00;99.90
52867;DHT22;38739;53.324;6.862;2023-08-01T15:17:18;19.30;99.90
52867;DHT22;38739;53.324;6.862;2023-08-01T15:19:44;19.40;99.90
52867;DHT22;38739;53.324;6.862;2023-08-01T15:22:21;19.20;99.90
52867;DHT22;38739;53.324;6.862;2023-08-01T15:24:48;19.20;99.90